sensor_id;sensor_type;location;lat;lon;timestamp;P1;durP1;ratioP1;P2;durP2;ratioP2
19163;SDS011;9714;51.208;4.242;2022-12-16T00:00:05;67.23;;;30.17;;
19163;SDS011;9714;51.208;4.242;2022-12-16T00:02:35;89.13;;;35.27;;
19163;SDS011;9714;51.208;4.242;2022-12-16T00:05:02;72.07;;;32.87;;
19163;SDS011;9714;51.208;4.242;2022-12-16T00:07:30;61.10;;;29.60;;
19163;SDS011;9714;51.208;4.242;2022-12-16T00:09:57;59.87;;;29.97;;
19163;SDS011;9714;51.208;4.242;2022-12-16T00:12:24;67.27;;;31.97;;
19163;SDS011;9714;51.208;4.242;2022-12-16T00:14:50;60.87;;;29.90;;
19163;SDS011;9714;51.208;4.242;2022-12-16T00:17:17;64.53;;;30.70;;
19163;SDS011;9714;51.208;4.242;2022-12-16T00:19:46;65.67;;;33.27;;
19163;SDS011;9714;51.208;4.242;2022-12-16T00:22:13;68.47;;;31.70;;
19163;SDS011;9714;51.208;4.242;2022-12-16T00:24:39;74.73;;;35.43;;
19163;SDS011;9714;51.208;4.242;2022-12-16T00:27:06;70.57;;;32.97;;
19163;SDS011;9714;51.208;4.242;2022-12-16T00:29:33;59.20;;;27.30;;
19163;SDS011;9714;51.208;4.242;2022-12-16T00:32:00;46.43;;;23.20;;
19163;SDS011;9714;51.208;4.242;2022-12-16T00:34:27;50.30;;;27.20;;
19163;SDS011;9714;51.208;4.242;2022-12-16T00:36:57;43.43;;;22.80;;
19163;SDS011;9714;51.208;4.242;2022-12-16T00:39:24;47.87;;;22.67;;
19163;SDS011;9714;51.208;4.242;2022-12-16T00:41:50;43.27;;;21.63;;
19163;SDS011;9714;51.208;4.242;2022-12-16T00:44:17;52.57;;;22.70;;
19163;SDS011;9714;51.208;4.242;2022-12-16T00:46:44;46.70;;;23.10;;
19163;SDS011;9714;51.208;4.242;2022-12-16T00:49:13;45.40;;;22.03;;
19163;SDS011;9714;51.208;4.242;2022-12-16T00:51:40;44.23;;;20.90;;
19163;SDS011;9714;51.208;4.242;2022-12-16T00:54:09;39.13;;;20.73;;
19163;SDS011;9714;51.208;4.242;2022-12-16T00:56:35;45.20;;;21.67;;
19163;SDS011;9714;51.208;4.242;2022-12-16T00:59:02;48.83;;;22.77;;
19163;SDS011;9714;51.208;4.242;2022-12-16T01:01:31;46.43;;;23.27;;
19163;SDS011;9714;51.208;4.242;2022-12-16T01:03:59;45.90;;;22.53;;
19163;SDS011;9714;51.208;4.242;2022-12-16T01:06:26;43.10;;;21.77;;
19163;SDS011;9714;51.208;4.242;2022-12-16T01:08:53;40.43;;;21.57;;
19163;SDS011;9714;51.208;4.242;2022-12-16T01:11:21;44.53;;;22.47;;
19163;SDS011;9714;51.208;4.242;2022-12-16T01:13:49;42.13;;;20.00;;
19163;SDS011;9714;51.208;4.242;2022-12-16T01:16:16;50.93;;;20.17;;
19163;SDS011;9714;51.208;4.242;2022-12-16T01:18:43;39.27;;;20.00;;
19163;SDS011;9714;51.208;4.242;2022-12-16T01:21:11;39.03;;;19.57;;
19163;SDS011;9714;51.208;4.242;2022-12-16T01:23:40;44.50;;;19.00;;
19163;SDS011;9714;51.208;4.242;2022-12-16T01:26:08;49.10;;;20.30;;
19163;SDS011;9714;51.208;4.242;2022-12-16T01:28:41;43.20;;;19.80;;
19163;SDS011;9714;51.208;4.242;2022-12-16T01:31:09;36.93;;;19.03;;
19163;SDS011;9714;51.208;4.242;2022-12-16T01:33:37;37.97;;;16.93;;
19163;SDS011;9714;51.208;4.242;2022-12-16T01:36:05;34.37;;;17.60;;
19163;SDS011;9714;51.208;4.242;2022-12-16T01:38:33;31.33;;;14.43;;
19163;SDS011;9714;51.208;4.242;2022-12-16T01:41:01;34.67;;;15.60;;
19163;SDS011;9714;51.208;4.242;2022-12-16T01:43:30;42.40;;;17.77;;
19163;SDS011;9714;51.208;4.242;2022-12-16T01:46:00;38.07;;;14.73;;
19163;SDS011;9714;51.208;4.242;2022-12-16T01:48:33;30.13;;;13.13;;
19163;SDS011;9714;51.208;4.242;2022-12-16T01:51:05;26.73;;;11.87;;
19163;SDS011;9714;51.208;4.242;2022-12-16T01:53:35;25.83;;;9.30;;
19163;SDS011;9714;51.208;4.242;2022-12-16T01:56:06;26.37;;;8.93;;
19163;SDS011;9714;51.208;4.242;2022-12-16T01:58:33;21.03;;;7.03;;
19163;SDS011;9714;51.208;4.242;2022-12-16T02:01:05;20.97;;;7.17;;
19163;SDS011;9714;51.208;4.242;2022-12-16T02:03:33;20.53;;;7.43;;
19163;SDS011;9714;51.208;4.242;2022-12-16T02:06:01;23.73;;;7.93;;
19163;SDS011;9714;51.208;4.242;2022-12-16T02:08:30;21.70;;;9.27;;
19163;SDS011;9714;51.208;4.242;2022-12-16T02:14:01;20.33;;;8.97;;
19163;SDS011;9714;51.208;4.242;2022-12-16T02:16:44;23.90;;;9.50;;
19163;SDS011;9714;51.208;4.242;2022-12-16T02:19:25;22.80;;;9.00;;
19163;SDS011;9714;51.208;4.242;2022-12-16T02:22:13;22.77;;;9.23;;
19163;SDS011;9714;51.208;4.242;2022-12-16T02:25:07;18.80;;;9.40;;
19163;SDS011;9714;51.208;4.242;2022-12-16T02:27:57;26.03;;;10.20;;
19163;SDS011;9714;51.208;4.242;2022-12-16T02:30:47;18.40;;;9.93;;
19163;SDS011;9714;51.208;4.242;2022-12-16T02:33:37;18.60;;;9.07;;
19163;SDS011;9714;51.208;4.242;2022-12-16T02:36:21;20.50;;;10.57;;
19163;SDS011;9714;51.208;4.242;2022-12-16T02:38:56;39.27;;;14.40;;
19163;SDS011;9714;51.208;4.242;2022-12-16T02:41:27;33.43;;;12.17;;
19163;SDS011;9714;51.208;4.242;2022-12-16T02:44:04;24.03;;;10.77;;
19163;SDS011;9714;51.208;4.242;2022-12-16T02:46:38;22.60;;;13.27;;
19163;SDS011;9714;51.208;4.242;2022-12-16T02:49:07;27.83;;;12.47;;
19163;SDS011;9714;51.208;4.242;2022-12-16T02:51:55;30.17;;;12.63;;
19163;SDS011;9714;51.208;4.242;2022-12-16T02:54:24;22.87;;;12.13;;
19163;SDS011;9714;51.208;4.242;2022-12-16T02:56:53;27.37;;;13.77;;
19163;SDS011;9714;51.208;4.242;2022-12-16T02:59:32;27.23;;;14.03;;
19163;SDS011;9714;51.208;4.242;2022-12-16T03:02:09;28.43;;;14.30;;
19163;SDS011;9714;51.208;4.242;2022-12-16T03:04:41;33.40;;;15.97;;
19163;SDS011;9714;51.208;4.242;2022-12-16T03:07:14;33.13;;;15.97;;
19163;SDS011;9714;51.208;4.242;2022-12-16T03:09:47;33.27;;;16.30;;
19163;SDS011;9714;51.208;4.242;2022-12-16T03:12:16;33.53;;;16.27;;
19163;SDS011;9714;51.208;4.242;2022-12-16T03:14:47;31.23;;;15.77;;
19163;SDS011;9714;51.208;4.242;2022-12-16T03:17:18;32.37;;;14.33;;
19163;SDS011;9714;51.208;4.242;2022-12-16T03:19:48;32.77;;;15.63;;
19163;SDS011;9714;51.208;4.242;2022-12-16T03:22:24;29.27;;;15.97;;
19163;SDS011;9714;51.208;4.242;2022-12-16T03:24:54;25.07;;;13.50;;
19163;SDS011;9714;51.208;4.242;2022-12-16T03:27:23;29.77;;;14.03;;
19163;SDS011;9714;51.208;4.242;2022-12-16T03:29:58;27.47;;;13.63;;
19163;SDS011;9714;51.208;4.242;2022-12-16T03:32:34;27.83;;;13.50;;
19163;SDS011;9714;51.208;4.242;2022-12-16T03:35:07;23.47;;;13.40;;
19163;SDS011;9714;51.208;4.242;2022-12-16T03:37:41;29.03;;;14.60;;
19163;SDS011;9714;51.208;4.242;2022-12-16T03:40:10;31.93;;;13.63;;
19163;SDS011;9714;51.208;4.242;2022-12-16T03:42:39;32.20;;;14.47;;
19163;SDS011;9714;51.208;4.242;2022-12-16T03:45:10;31.33;;;14.27;;
19163;SDS011;9714;51.208;4.242;2022-12-16T03:47:48;25.07;;;13.67;;
19163;SDS011;9714;51.208;4.242;2022-12-16T03:50:18;27.83;;;13.63;;
19163;SDS011;9714;51.208;4.242;2022-12-16T03:52:51;27.87;;;14.03;;
19163;SDS011;9714;51.208;4.242;2022-12-16T03:55:20;28.10;;;13.83;;
19163;SDS011;9714;51.208;4.242;2022-12-16T03:57:47;23.90;;;12.97;;
19163;SDS011;9714;51.208;4.242;2022-12-16T04:00:15;24.60;;;12.37;;
19163;SDS011;9714;51.208;4.242;2022-12-16T04:02:44;26.70;;;13.10;;
19163;SDS011;9714;51.208;4.242;2022-12-16T04:05:13;25.30;;;12.97;;
19163;SDS011;9714;51.208;4.242;2022-12-16T04:07:41;22.87;;;11.43;;
19163;SDS011;9714;51.208;4.242;2022-12-16T04:10:10;23.73;;;12.07;;
19163;SDS011;9714;51.208;4.242;2022-12-16T04:12:38;23.33;;;11.73;;
19163;SDS011;9714;51.208;4.242;2022-12-16T04:15:24;20.97;;;10.47;;
19163;SDS011;9714;51.208;4.242;2022-12-16T04:21:03;21.00;;;9.57;;
19163;SDS011;9714;51.208;4.242;2022-12-16T04:23:49;20.97;;;9.20;;
19163;SDS011;9714;51.208;4.242;2022-12-16T04:26:36;20.10;;;9.57;;
19163;SDS011;9714;51.208;4.242;2022-12-16T04:29:18;22.00;;;9.20;;
19163;SDS011;9714;51.208;4.242;2022-12-16T04:31:48;29.07;;;9.10;;
19163;SDS011;9714;51.208;4.242;2022-12-16T04:34:16;21.03;;;8.07;;
19163;SDS011;9714;51.208;4.242;2022-12-16T04:36:57;19.47;;;8.20;;
19163;SDS011;9714;51.208;4.242;2022-12-16T04:39:45;20.53;;;8.80;;
19163;SDS011;9714;51.208;4.242;2022-12-16T04:42:31;18.90;;;8.17;;
19163;SDS011;9714;51.208;4.242;2022-12-16T04:45:16;22.03;;;7.63;;
19163;SDS011;9714;51.208;4.242;2022-12-16T04:48:01;23.30;;;7.37;;
19163;SDS011;9714;51.208;4.242;2022-12-16T04:50:46;20.97;;;7.27;;
19163;SDS011;9714;51.208;4.242;2022-12-16T04:53:33;18.13;;;7.37;;
19163;SDS011;9714;51.208;4.242;2022-12-16T04:56:14;22.57;;;7.13;;
19163;SDS011;9714;51.208;4.242;2022-12-16T04:58:59;19.40;;;6.93;;
19163;SDS011;9714;51.208;4.242;2022-12-16T05:01:44;23.50;;;7.03;;
19163;SDS011;9714;51.208;4.242;2022-12-16T05:04:29;15.07;;;6.63;;
19163;SDS011;9714;51.208;4.242;2022-12-16T05:07:13;18.03;;;6.87;;
19163;SDS011;9714;51.208;4.242;2022-12-16T05:10:02;16.20;;;6.13;;
19163;SDS011;9714;51.208;4.242;2022-12-16T05:12:47;16.90;;;5.60;;
19163;SDS011;9714;51.208;4.242;2022-12-16T05:15:33;18.00;;;6.47;;
19163;SDS011;9714;51.208;4.242;2022-12-16T05:18:18;15.03;;;6.60;;
19163;SDS011;9714;51.208;4.242;2022-12-16T05:21:03;21.07;;;5.93;;
19163;SDS011;9714;51.208;4.242;2022-12-16T05:23:49;17.70;;;5.90;;
19163;SDS011;9714;51.208;4.242;2022-12-16T05:26:39;18.70;;;5.73;;
19163;SDS011;9714;51.208;4.242;2022-12-16T05:29:26;17.00;;;5.43;;
19163;SDS011;9714;51.208;4.242;2022-12-16T05:32:12;20.80;;;6.50;;
19163;SDS011;9714;51.208;4.242;2022-12-16T05:34:58;21.73;;;5.90;;
19163;SDS011;9714;51.208;4.242;2022-12-16T05:37:47;13.70;;;5.43;;
19163;SDS011;9714;51.208;4.242;2022-12-16T05:40:31;13.73;;;5.70;;
19163;SDS011;9714;51.208;4.242;2022-12-16T05:43:21;16.47;;;6.10;;
19163;SDS011;9714;51.208;4.242;2022-12-16T05:46:12;20.63;;;7.40;;
19163;SDS011;9714;51.208;4.242;2022-12-16T05:48:58;23.73;;;7.07;;
19163;SDS011;9714;51.208;4.242;2022-12-16T05:51:45;18.13;;;7.23;;
19163;SDS011;9714;51.208;4.242;2022-12-16T05:54:35;24.83;;;7.67;;
19163;SDS011;9714;51.208;4.242;2022-12-16T05:57:22;24.60;;;8.03;;
19163;SDS011;9714;51.208;4.242;2022-12-16T06:00:10;30.37;;;8.93;;
19163;SDS011;9714;51.208;4.242;2022-12-16T06:02:56;28.43;;;7.70;;
19163;SDS011;9714;51.208;4.242;2022-12-16T06:05:40;26.43;;;8.73;;
19163;SDS011;9714;51.208;4.242;2022-12-16T06:08:25;25.43;;;8.90;;
19163;SDS011;9714;51.208;4.242;2022-12-16T06:11:11;23.30;;;8.60;;
19163;SDS011;9714;51.208;4.242;2022-12-16T06:13:56;26.83;;;8.10;;
19163;SDS011;9714;51.208;4.242;2022-12-16T06:16:44;25.27;;;8.93;;
19163;SDS011;9714;51.208;4.242;2022-12-16T06:19:31;23.63;;;9.03;;
19163;SDS011;9714;51.208;4.242;2022-12-16T06:22:17;25.70;;;9.57;;
19163;SDS011;9714;51.208;4.242;2022-12-16T06:25:05;25.60;;;8.83;;
19163;SDS011;9714;51.208;4.242;2022-12-16T06:27:50;25.47;;;9.27;;
19163;SDS011;9714;51.208;4.242;2022-12-16T06:30:36;17.50;;;8.33;;
19163;SDS011;9714;51.208;4.242;2022-12-16T06:33:32;22.60;;;9.10;;
19163;SDS011;9714;51.208;4.242;2022-12-16T06:36:14;26.13;;;10.10;;
19163;SDS011;9714;51.208;4.242;2022-12-16T06:39:03;25.77;;;10.20;;
19163;SDS011;9714;51.208;4.242;2022-12-16T06:41:48;22.83;;;9.50;;
19163;SDS011;9714;51.208;4.242;2022-12-16T06:44:34;27.50;;;11.20;;
19163;SDS011;9714;51.208;4.242;2022-12-16T06:47:19;34.77;;;12.70;;
19163;SDS011;9714;51.208;4.242;2022-12-16T06:50:06;29.07;;;12.07;;
19163;SDS011;9714;51.208;4.242;2022-12-16T06:52:52;28.60;;;12.10;;
19163;SDS011;9714;51.208;4.242;2022-12-16T06:55:51;29.93;;;14.57;;
19163;SDS011;9714;51.208;4.242;2022-12-16T06:58:36;33.70;;;14.83;;
19163;SDS011;9714;51.208;4.242;2022-12-16T07:01:22;29.10;;;13.93;;
19163;SDS011;9714;51.208;4.242;2022-12-16T07:04:10;27.77;;;13.77;;
19163;SDS011;9714;51.208;4.242;2022-12-16T07:06:56;29.40;;;13.53;;
19163;SDS011;9714;51.208;4.242;2022-12-16T07:09:46;27.50;;;11.27;;
19163;SDS011;9714;51.208;4.242;2022-12-16T07:12:32;23.57;;;10.50;;
19163;SDS011;9714;51.208;4.242;2022-12-16T07:15:31;23.83;;;11.20;;
19163;SDS011;9714;51.208;4.242;2022-12-16T07:18:16;25.07;;;12.00;;
19163;SDS011;9714;51.208;4.242;2022-12-16T07:21:01;24.03;;;11.57;;
19163;SDS011;9714;51.208;4.242;2022-12-16T07:23:49;34.13;;;13.00;;
19163;SDS011;9714;51.208;4.242;2022-12-16T07:26:33;34.23;;;15.80;;
19163;SDS011;9714;51.208;4.242;2022-12-16T07:29:18;32.77;;;16.60;;
19163;SDS011;9714;51.208;4.242;2022-12-16T07:32:03;34.27;;;14.57;;
19163;SDS011;9714;51.208;4.242;2022-12-16T07:34:49;26.60;;;14.30;;
19163;SDS011;9714;51.208;4.242;2022-12-16T07:37:33;35.27;;;16.10;;
19163;SDS011;9714;51.208;4.242;2022-12-16T07:40:30;27.20;;;12.07;;
19163;SDS011;9714;51.208;4.242;2022-12-16T07:43:14;25.10;;;12.60;;
19163;SDS011;9714;51.208;4.242;2022-12-16T07:48:50;27.97;;;13.20;;
19163;SDS011;9714;51.208;4.242;2022-12-16T07:51:35;31.20;;;14.53;;
19163;SDS011;9714;51.208;4.242;2022-12-16T07:57:09;33.43;;;14.73;;
19163;SDS011;9714;51.208;4.242;2022-12-16T07:59:55;32.27;;;13.40;;
19163;SDS011;9714;51.208;4.242;2022-12-16T08:02:40;27.27;;;12.47;;
19163;SDS011;9714;51.208;4.242;2022-12-16T08:05:25;29.67;;;11.70;;
19163;SDS011;9714;51.208;4.242;2022-12-16T08:08:10;26.43;;;12.87;;
19163;SDS011;9714;51.208;4.242;2022-12-16T08:10:56;31.50;;;12.23;;
19163;SDS011;9714;51.208;4.242;2022-12-16T08:13:42;26.43;;;12.17;;
19163;SDS011;9714;51.208;4.242;2022-12-16T08:16:27;25.47;;;11.03;;
19163;SDS011;9714;51.208;4.242;2022-12-16T08:19:12;32.27;;;13.33;;
19163;SDS011;9714;51.208;4.242;2022-12-16T08:21:59;29.60;;;13.13;;
19163;SDS011;9714;51.208;4.242;2022-12-16T08:24:45;28.70;;;14.23;;
19163;SDS011;9714;51.208;4.242;2022-12-16T08:27:30;32.30;;;13.87;;
19163;SDS011;9714;51.208;4.242;2022-12-16T08:30:16;44.50;;;21.07;;
19163;SDS011;9714;51.208;4.242;2022-12-16T08:33:02;47.27;;;18.87;;
19163;SDS011;9714;51.208;4.242;2022-12-16T08:35:50;44.47;;;19.90;;
19163;SDS011;9714;51.208;4.242;2022-12-16T08:38:36;36.50;;;17.93;;
19163;SDS011;9714;51.208;4.242;2022-12-16T08:41:23;28.20;;;15.27;;
19163;SDS011;9714;51.208;4.242;2022-12-16T08:44:08;37.50;;;16.57;;
19163;SDS011;9714;51.208;4.242;2022-12-16T08:46:54;39.43;;;17.57;;
19163;SDS011;9714;51.208;4.242;2022-12-16T08:52:27;35.03;;;16.30;;
19163;SDS011;9714;51.208;4.242;2022-12-16T08:55:13;43.00;;;16.90;;
19163;SDS011;9714;51.208;4.242;2022-12-16T08:57:58;37.60;;;15.43;;
19163;SDS011;9714;51.208;4.242;2022-12-16T09:00:43;33.80;;;13.47;;
19163;SDS011;9714;51.208;4.242;2022-12-16T09:03:29;36.13;;;14.27;;
19163;SDS011;9714;51.208;4.242;2022-12-16T09:06:16;62.20;;;26.07;;
19163;SDS011;9714;51.208;4.242;2022-12-16T09:09:03;38.60;;;16.67;;
19163;SDS011;9714;51.208;4.242;2022-12-16T09:11:48;28.73;;;13.03;;
19163;SDS011;9714;51.208;4.242;2022-12-16T09:14:35;28.23;;;12.43;;
19163;SDS011;9714;51.208;4.242;2022-12-16T09:17:20;42.27;;;16.83;;
19163;SDS011;9714;51.208;4.242;2022-12-16T09:20:07;33.53;;;16.07;;
19163;SDS011;9714;51.208;4.242;2022-12-16T09:22:52;31.13;;;13.17;;
19163;SDS011;9714;51.208;4.242;2022-12-16T09:25:38;30.43;;;14.27;;
19163;SDS011;9714;51.208;4.242;2022-12-16T09:28:23;32.47;;;15.33;;
19163;SDS011;9714;51.208;4.242;2022-12-16T09:31:08;27.43;;;13.70;;
19163;SDS011;9714;51.208;4.242;2022-12-16T09:33:56;29.17;;;13.03;;
19163;SDS011;9714;51.208;4.242;2022-12-16T09:36:42;26.57;;;11.90;;
19163;SDS011;9714;51.208;4.242;2022-12-16T09:39:27;23.97;;;11.90;;
19163;SDS011;9714;51.208;4.242;2022-12-16T09:42:16;25.73;;;11.50;;
19163;SDS011;9714;51.208;4.242;2022-12-16T09:45:22;33.37;;;13.50;;
19163;SDS011;9714;51.208;4.242;2022-12-16T09:48:17;34.43;;;13.27;;
19163;SDS011;9714;51.208;4.242;2022-12-16T09:51:08;25.77;;;11.53;;
19163;SDS011;9714;51.208;4.242;2022-12-16T09:53:58;27.27;;;13.30;;
19163;SDS011;9714;51.208;4.242;2022-12-16T09:56:45;28.20;;;11.70;;
19163;SDS011;9714;51.208;4.242;2022-12-16T09:59:32;27.27;;;12.83;;
19163;SDS011;9714;51.208;4.242;2022-12-16T10:02:19;27.03;;;13.03;;
19163;SDS011;9714;51.208;4.242;2022-12-16T10:05:10;29.87;;;12.70;;
19163;SDS011;9714;51.208;4.242;2022-12-16T10:07:59;34.07;;;13.70;;
19163;SDS011;9714;51.208;4.242;2022-12-16T10:10:52;36.53;;;18.63;;
19163;SDS011;9714;51.208;4.242;2022-12-16T10:13:45;25.60;;;12.70;;
19163;SDS011;9714;51.208;4.242;2022-12-16T10:16:39;70.10;;;32.27;;
19163;SDS011;9714;51.208;4.242;2022-12-16T10:22:29;26.43;;;11.50;;
19163;SDS011;9714;51.208;4.242;2022-12-16T10:25:25;28.80;;;11.50;;
19163;SDS011;9714;51.208;4.242;2022-12-16T10:28:16;26.40;;;10.73;;
19163;SDS011;9714;51.208;4.242;2022-12-16T10:31:11;21.60;;;8.60;;
19163;SDS011;9714;51.208;4.242;2022-12-16T10:34:00;20.20;;;8.17;;
19163;SDS011;9714;51.208;4.242;2022-12-16T10:36:51;17.17;;;8.03;;
19163;SDS011;9714;51.208;4.242;2022-12-16T10:39:39;24.17;;;8.53;;
19163;SDS011;9714;51.208;4.242;2022-12-16T10:45:20;26.40;;;8.73;;
19163;SDS011;9714;51.208;4.242;2022-12-16T10:48:10;19.27;;;7.70;;
19163;SDS011;9714;51.208;4.242;2022-12-16T10:50:56;15.40;;;5.40;;
19163;SDS011;9714;51.208;4.242;2022-12-16T10:53:45;15.37;;;4.73;;
19163;SDS011;9714;51.208;4.242;2022-12-16T10:56:40;12.50;;;3.93;;
19163;SDS011;9714;51.208;4.242;2022-12-16T10:59:39;10.73;;;3.63;;
19163;SDS011;9714;51.208;4.242;2022-12-16T11:02:27;8.93;;;3.30;;
19163;SDS011;9714;51.208;4.242;2022-12-16T11:05:28;8.77;;;2.90;;
19163;SDS011;9714;51.208;4.242;2022-12-16T11:08:22;9.90;;;2.97;;
19163;SDS011;9714;51.208;4.242;2022-12-16T11:11:20;9.60;;;3.07;;
19163;SDS011;9714;51.208;4.242;2022-12-16T11:17:16;12.53;;;3.17;;
19163;SDS011;9714;51.208;4.242;2022-12-16T11:20:14;10.57;;;3.17;;
19163;SDS011;9714;51.208;4.242;2022-12-16T11:23:14;9.63;;;2.73;;
19163;SDS011;9714;51.208;4.242;2022-12-16T11:26:06;8.37;;;3.03;;
19163;SDS011;9714;51.208;4.242;2022-12-16T11:29:04;13.60;;;3.03;;
19163;SDS011;9714;51.208;4.242;2022-12-16T11:32:00;9.83;;;2.90;;
19163;SDS011;9714;51.208;4.242;2022-12-16T11:37:39;13.87;;;3.33;;
19163;SDS011;9714;51.208;4.242;2022-12-16T11:40:27;10.00;;;3.00;;
19163;SDS011;9714;51.208;4.242;2022-12-16T11:43:14;8.97;;;2.83;;
19163;SDS011;9714;51.208;4.242;2022-12-16T11:46:02;8.33;;;2.87;;
19163;SDS011;9714;51.208;4.242;2022-12-16T11:48:57;11.30;;;3.20;;
19163;SDS011;9714;51.208;4.242;2022-12-16T11:51:42;8.37;;;3.03;;
19163;SDS011;9714;51.208;4.242;2022-12-16T11:54:34;10.03;;;2.83;;
19163;SDS011;9714;51.208;4.242;2022-12-16T12:00:33;21.20;;;5.80;;
19163;SDS011;9714;51.208;4.242;2022-12-16T12:03:27;18.27;;;6.03;;
19163;SDS011;9714;51.208;4.242;2022-12-16T12:06:16;14.50;;;5.20;;
19163;SDS011;9714;51.208;4.242;2022-12-16T12:09:14;17.43;;;4.63;;
19163;SDS011;9714;51.208;4.242;2022-12-16T12:12:07;14.93;;;4.70;;
19163;SDS011;9714;51.208;4.242;2022-12-16T12:15:03;18.63;;;4.97;;
19163;SDS011;9714;51.208;4.242;2022-12-16T12:18:01;14.57;;;5.90;;
19163;SDS011;9714;51.208;4.242;2022-12-16T12:20:56;17.10;;;4.53;;
19163;SDS011;9714;51.208;4.242;2022-12-16T12:23:48;12.70;;;4.47;;
19163;SDS011;9714;51.208;4.242;2022-12-16T12:26:38;14.87;;;4.87;;
19163;SDS011;9714;51.208;4.242;2022-12-16T12:29:32;17.50;;;5.70;;
19163;SDS011;9714;51.208;4.242;2022-12-16T12:35:22;21.03;;;5.03;;
19163;SDS011;9714;51.208;4.242;2022-12-16T12:38:22;16.63;;;5.20;;
19163;SDS011;9714;51.208;4.242;2022-12-16T12:41:14;17.93;;;5.83;;
19163;SDS011;9714;51.208;4.242;2022-12-16T12:44:03;12.97;;;4.43;;
19163;SDS011;9714;51.208;4.242;2022-12-16T12:46:56;11.23;;;4.30;;
19163;SDS011;9714;51.208;4.242;2022-12-16T12:49:43;15.50;;;4.40;;
19163;SDS011;9714;51.208;4.242;2022-12-16T12:52:40;16.60;;;4.93;;
19163;SDS011;9714;51.208;4.242;2022-12-16T12:55:43;14.30;;;4.43;;
19163;SDS011;9714;51.208;4.242;2022-12-16T12:58:34;15.00;;;4.57;;
19163;SDS011;9714;51.208;4.242;2022-12-16T13:01:21;13.83;;;4.17;;
19163;SDS011;9714;51.208;4.242;2022-12-16T13:04:25;15.27;;;5.17;;
19163;SDS011;9714;51.208;4.242;2022-12-16T13:07:11;17.03;;;4.63;;
19163;SDS011;9714;51.208;4.242;2022-12-16T13:10:13;18.03;;;4.07;;
19163;SDS011;9714;51.208;4.242;2022-12-16T13:13:32;10.23;;;4.13;;
19163;SDS011;9714;51.208;4.242;2022-12-16T13:19:57;13.50;;;4.83;;
19163;SDS011;9714;51.208;4.242;2022-12-16T13:22:43;16.57;;;4.90;;
19163;SDS011;9714;51.208;4.242;2022-12-16T13:25:37;20.97;;;4.90;;
19163;SDS011;9714;51.208;4.242;2022-12-16T13:28:27;14.40;;;4.50;;
19163;SDS011;9714;51.208;4.242;2022-12-16T13:31:14;16.90;;;4.80;;
19163;SDS011;9714;51.208;4.242;2022-12-16T13:34:02;14.53;;;4.90;;
19163;SDS011;9714;51.208;4.242;2022-12-16T13:36:55;17.37;;;5.17;;
19163;SDS011;9714;51.208;4.242;2022-12-16T13:39:42;13.67;;;4.33;;
19163;SDS011;9714;51.208;4.242;2022-12-16T13:46:11;17.17;;;4.53;;
19163;SDS011;9714;51.208;4.242;2022-12-16T13:52:17;16.43;;;4.43;;
19163;SDS011;9714;51.208;4.242;2022-12-16T13:55:10;14.50;;;4.63;;
19163;SDS011;9714;51.208;4.242;2022-12-16T13:58:00;15.80;;;4.70;;
19163;SDS011;9714;51.208;4.242;2022-12-16T14:00:53;11.67;;;3.93;;
19163;SDS011;9714;51.208;4.242;2022-12-16T14:03:44;14.07;;;4.80;;
19163;SDS011;9714;51.208;4.242;2022-12-16T14:06:31;14.53;;;5.57;;
19163;SDS011;9714;51.208;4.242;2022-12-16T14:12:35;19.23;;;6.73;;
19163;SDS011;9714;51.208;4.242;2022-12-16T14:15:28;15.93;;;5.70;;
19163;SDS011;9714;51.208;4.242;2022-12-16T14:18:22;21.40;;;5.67;;
19163;SDS011;9714;51.208;4.242;2022-12-16T14:21:16;19.83;;;5.90;;
19163;SDS011;9714;51.208;4.242;2022-12-16T14:24:08;22.07;;;6.50;;
19163;SDS011;9714;51.208;4.242;2022-12-16T14:27:03;17.10;;;7.10;;
19163;SDS011;9714;51.208;4.242;2022-12-16T14:29:57;17.17;;;6.17;;
19163;SDS011;9714;51.208;4.242;2022-12-16T14:32:42;19.97;;;7.10;;
19163;SDS011;9714;51.208;4.242;2022-12-16T14:35:26;28.43;;;7.43;;
19163;SDS011;9714;51.208;4.242;2022-12-16T14:41:06;25.90;;;7.77;;
19163;SDS011;9714;51.208;4.242;2022-12-16T14:43:54;17.20;;;6.40;;
19163;SDS011;9714;51.208;4.242;2022-12-16T14:46:39;24.10;;;7.60;;
19163;SDS011;9714;51.208;4.242;2022-12-16T14:49:25;18.77;;;7.07;;
19163;SDS011;9714;51.208;4.242;2022-12-16T14:52:16;23.67;;;7.83;;
19163;SDS011;9714;51.208;4.242;2022-12-16T14:55:14;20.23;;;6.80;;
19163;SDS011;9714;51.208;4.242;2022-12-16T14:58:08;20.70;;;7.57;;
19163;SDS011;9714;51.208;4.242;2022-12-16T15:00:55;19.53;;;6.37;;
19163;SDS011;9714;51.208;4.242;2022-12-16T15:03:41;18.20;;;6.70;;
19163;SDS011;9714;51.208;4.242;2022-12-16T15:06:29;21.00;;;7.93;;
19163;SDS011;9714;51.208;4.242;2022-12-16T15:09:19;21.30;;;8.37;;
19163;SDS011;9714;51.208;4.242;2022-12-16T15:12:09;18.40;;;8.47;;
19163;SDS011;9714;51.208;4.242;2022-12-16T15:14:55;22.40;;;7.67;;
19163;SDS011;9714;51.208;4.242;2022-12-16T15:17:43;22.00;;;7.70;;
19163;SDS011;9714;51.208;4.242;2022-12-16T15:20:32;18.63;;;7.23;;
19163;SDS011;9714;51.208;4.242;2022-12-16T15:23:20;24.40;;;7.30;;
19163;SDS011;9714;51.208;4.242;2022-12-16T15:26:07;16.47;;;6.60;;
19163;SDS011;9714;51.208;4.242;2022-12-16T15:28:53;20.20;;;6.80;;
19163;SDS011;9714;51.208;4.242;2022-12-16T15:31:38;24.77;;;7.67;;
19163;SDS011;9714;51.208;4.242;2022-12-16T15:34:28;18.27;;;7.03;;
19163;SDS011;9714;51.208;4.242;2022-12-16T15:37:16;22.17;;;8.10;;
19163;SDS011;9714;51.208;4.242;2022-12-16T15:40:23;23.93;;;7.97;;
19163;SDS011;9714;51.208;4.242;2022-12-16T15:43:18;22.60;;;7.73;;
19163;SDS011;9714;51.208;4.242;2022-12-16T15:46:08;23.80;;;9.63;;
19163;SDS011;9714;51.208;4.242;2022-12-16T15:49:00;22.07;;;8.77;;
19163;SDS011;9714;51.208;4.242;2022-12-16T15:52:00;28.93;;;8.97;;
19163;SDS011;9714;51.208;4.242;2022-12-16T15:54:52;31.23;;;14.30;;
19163;SDS011;9714;51.208;4.242;2022-12-16T15:57:39;29.13;;;14.90;;
19163;SDS011;9714;51.208;4.242;2022-12-16T16:00:38;28.07;;;14.30;;
19163;SDS011;9714;51.208;4.242;2022-12-16T16:03:38;30.03;;;14.70;;
19163;SDS011;9714;51.208;4.242;2022-12-16T16:06:24;34.40;;;15.63;;
19163;SDS011;9714;51.208;4.242;2022-12-16T16:09:12;35.30;;;15.93;;
19163;SDS011;9714;51.208;4.242;2022-12-16T16:11:57;33.47;;;16.93;;
19163;SDS011;9714;51.208;4.242;2022-12-16T16:14:42;36.17;;;15.67;;
19163;SDS011;9714;51.208;4.242;2022-12-16T16:17:28;36.00;;;14.00;;
19163;SDS011;9714;51.208;4.242;2022-12-16T16:20:14;33.37;;;15.53;;
19163;SDS011;9714;51.208;4.242;2022-12-16T16:23:00;34.40;;;14.10;;
19163;SDS011;9714;51.208;4.242;2022-12-16T16:25:45;33.70;;;14.57;;
19163;SDS011;9714;51.208;4.242;2022-12-16T16:28:30;40.77;;;15.80;;
19163;SDS011;9714;51.208;4.242;2022-12-16T16:31:15;45.57;;;24.97;;
19163;SDS011;9714;51.208;4.242;2022-12-16T16:34:00;42.17;;;19.27;;
19163;SDS011;9714;51.208;4.242;2022-12-16T16:36:49;34.60;;;16.50;;
19163;SDS011;9714;51.208;4.242;2022-12-16T16:39:37;33.53;;;16.10;;
19163;SDS011;9714;51.208;4.242;2022-12-16T16:42:18;34.27;;;15.23;;
19163;SDS011;9714;51.208;4.242;2022-12-16T16:45:03;42.17;;;16.63;;
19163;SDS011;9714;51.208;4.242;2022-12-16T16:47:49;33.30;;;16.03;;
19163;SDS011;9714;51.208;4.242;2022-12-16T16:50:33;43.47;;;26.37;;
19163;SDS011;9714;51.208;4.242;2022-12-16T16:53:21;38.90;;;18.87;;
19163;SDS011;9714;51.208;4.242;2022-12-16T16:56:07;46.00;;;20.57;;
19163;SDS011;9714;51.208;4.242;2022-12-16T16:58:53;37.97;;;17.47;;
19163;SDS011;9714;51.208;4.242;2022-12-16T17:01:38;42.10;;;18.77;;
19163;SDS011;9714;51.208;4.242;2022-12-16T17:04:24;33.17;;;16.33;;
19163;SDS011;9714;51.208;4.242;2022-12-16T17:07:10;50.53;;;29.53;;